Time;durP1;ratioP1;P1;durP2;ratioP2;P2;SDS_P1;SDS_P2;PMS_P1;PMS_P2;Temp;Humidity;BMP_temperature;BMP_pressure;BME280_temperature;BME280_humidity;BME280_pressure;Samples;Min_cycle;Max_cycle;Signal;HPM_P1;HPM_P2
2021/12/15 00:01:10;;;;;;;1999.90;999.90;;;;;;;6.57;99.53;164147.88;5047349;28;20095;-67
2021/12/15 00:03:38;;;;;;;1999.90;999.90;;;;;;;6.50;99.53;164130.00;5043333;28;20052;-67
2021/12/15 00:06:12;;;;;;;1999.90;999.90;;;;;;;6.35;99.55;164091.53;5045985;28;20053;-67
2021/12/15 00:08:40;;;;;;;1999.90;999.90;;;;;;;5.93;100.00;163978.88;5048034;28;20441;-67
2021/12/15 00:11:07;;;;;;;1999.90;999.90;;;;;;;5.94;100.00;163981.66;5050795;28;20110;-67
2021/12/15 00:13:36;;;;;;;1999.90;999.90;;;;;;;6.07;100.00;164014.63;5048173;28;20049;-67
2021/12/15 00:16:05;;;;;;;1999.90;999.90;;;;;;;6.19;100.00;164047.59;5058131;28;20049;-67
2021/12/15 00:18:34;;;;;;;1999.90;999.90;;;;;;;6.06;100.00;164011.88;5059493;28;20052;-67
2021/12/15 00:21:01;;;;;;;1999.90;999.90;;;;;;;5.83;100.00;163951.44;5047446;28;20052;-67
2021/12/15 00:23:27;;;;;;;1999.90;999.90;;;;;;;5.95;100.00;163984.34;5046261;28;20084;-67
2021/12/15 00:25:54;;;;;;;1999.90;999.90;;;;;;;6.15;100.00;164038.00;5050549;28;20045;-67
2021/12/15 00:28:21;;;;;;;1999.90;999.90;;;;;;;6.24;99.85;164061.34;5052703;28;20080;-67
2021/12/15 00:30:48;;;;;;;1999.90;999.90;;;;;;;6.32;99.39;164081.94;5057429;28;20045;-67
2021/12/15 00:33:14;;;;;;;1999.90;999.90;;;;;;;6.18;99.72;164044.88;5037355;28;20438;-67
2021/12/15 00:35:41;;;;;;;1999.90;999.90;;;;;;;6.30;99.54;164077.81;5043247;28;20466;-66
2021/12/15 00:38:08;;;;;;;1999.90;999.90;;;;;;;6.34;99.31;164087.41;5048019;28;20048;-67
2021/12/15 00:40:35;;;;;;;1999.90;999.90;;;;;;;6.33;98.93;164086.03;5045995;28;20069;-67
2021/12/15 00:43:02;;;;;;;1999.90;999.90;;;;;;;6.17;99.85;164042.09;5054844;28;20114;-67
2021/12/15 00:45:29;;;;;;;1999.90;999.90;;;;;;;6.21;99.72;164051.69;5043568;28;20515;-67
2021/12/15 00:47:57;;;;;;;1999.90;999.90;;;;;;;6.38;99.36;164097.03;5048225;28;20056;-67
2021/12/15 00:50:29;;;;;;;1999.90;999.90;;;;;;;6.39;99.18;164101.16;5070722;28;20091;-66
2021/12/15 00:52:56;;;;;;;1999.90;999.90;;;;;;;6.41;99.14;164106.63;5059560;28;20048;-67
2021/12/15 00:55:25;;;;;;;1999.90;999.90;;;;;;;6.41;98.97;164105.28;5045253;28;20076;-67
2021/12/15 00:57:52;;;;;;;1999.90;999.90;;;;;;;6.34;99.26;164088.81;5050887;28;20081;-67
2021/12/15 01:00:24;;;;;;;1999.90;999.90;;;;;;;6.26;99.13;164066.81;5049595;28;20107;-67
2021/12/15 01:02:51;;;;;;;1999.90;999.90;;;;;;;6.20;99.52;164049.00;5038148;28;20048;-67
2021/12/15 01:05:24;;;;;;;1999.90;999.90;;;;;;;6.36;99.41;164092.94;5054263;28;20135;-67
2021/12/15 01:07:51;;;;;;;1999.90;999.90;;;;;;;6.12;99.26;164028.41;5041962;28;20100;-67
2021/12/15 01:10:24;;;;;;;1999.90;999.90;;;;;;;6.11;99.64;164025.63;5051392;28;20093;-67
2021/12/15 01:14:32;;;;;;;1999.90;999.90;;;;;;;6.01;100.00;163998.16;5049116;28;20065;-67
2021/12/15 01:21:15;;;;;;;1999.90;999.90;;;;;;;5.84;100.00;163954.19;5047233;28;20058;-67
2021/12/15 01:23:42;;;;;;;1999.90;999.90;;;;;;;6.02;100.00;164002.28;5049085;28;20146;-67
2021/12/15 01:26:12;;;;;;;1999.90;999.90;;;;;;;5.81;100.00;163945.94;5047298;28;20071;-67
2021/12/15 01:28:40;;;;;;;1999.90;999.90;;;;;;;5.89;100.00;163966.53;5051984;28;20139;-67
2021/12/15 01:31:09;;;;;;;1999.90;999.90;;;;;;;5.92;99.96;163976.13;5040524;28;20099;-67
2021/12/15 01:33:39;;;;;;;1999.90;999.90;;;;;;;5.88;100.00;163963.78;5039086;28;20045;-66
2021/12/15 01:36:07;;;;;;;1999.90;999.90;;;;;;;5.92;100.00;163974.78;5050766;28;20094;-67
2021/12/15 01:38:36;;;;;;;1999.90;999.90;;;;;;;5.88;100.00;163965.19;5044647;28;20084;-67
2021/12/15 01:41:04;;;;;;;1999.90;999.90;;;;;;;5.92;100.00;163976.13;5047606;28;20077;-67
2021/12/15 01:49:20;;;;;;;1999.90;999.90;;;;;;;5.89;100.00;163967.88;5041665;28;20069;-67
2021/12/15 01:51:47;;;;;;;1999.90;999.90;;;;;;;6.05;100.00;164009.16;5051205;28;20443;-67
2021/12/15 01:54:15;;;;;;;1999.90;999.90;;;;;;;6.12;99.96;164029.75;5040780;28;20077;-67
2021/12/15 01:56:43;;;;;;;1999.90;999.90;;;;;;;6.17;100.00;164043.47;5059104;28;20080;-67
2021/12/15 01:59:12;;;;;;;1999.90;999.90;;;;;;;6.20;100.00;164050.34;5044636;28;20409;-67
2021/12/15 02:01:39;;;;;;;1999.90;999.90;;;;;;;6.24;99.93;164061.34;5044331;28;20103;-67
2021/12/15 02:04:07;;;;;;;1999.90;999.90;;;;;;;6.16;100.00;164039.34;5051599;28;20052;-67
2021/12/15 02:06:42;;;;;;;1999.90;999.90;;;;;;;6.29;99.83;164073.69;5040917;28;20415;-67
2021/12/15 02:09:16;;;;;;;1999.90;999.90;;;;;;;6.35;99.75;164090.16;5040880;28;20041;-67
2021/12/15 02:11:42;;;;;;;1999.90;999.90;;;;;;;6.31;99.75;164079.16;5047544;28;20044;-67
2021/12/15 02:14:11;;;;;;;1999.90;999.90;;;;;;;6.29;100.00;164075.03;5049555;28;20049;-67
2021/12/15 02:16:37;;;;;;;1999.90;999.90;;;;;;;6.37;99.94;164095.63;5046499;28;20098;-67
2021/12/15 02:19:04;;;;;;;1999.90;999.90;;;;;;;6.23;100.00;164058.56;5043847;28;20060;-67
2021/12/15 02:21:31;;;;;;;1999.90;999.90;;;;;;;6.15;100.00;164036.63;5045669;28;20056;-67
2021/12/15 02:24:00;;;;;;;1999.90;999.90;;;;;;;6.19;100.00;164047.59;5042665;28;20087;-67
2021/12/15 02:26:35;;;;;;;1999.90;999.90;;;;;;;6.34;100.00;164088.81;5041019;28;20092;-67
2021/12/15 02:29:06;;;;;;;1999.90;999.90;;;;;;;5.91;100.00;163973.41;5040503;28;20057;-67
2021/12/15 02:31:40;;;;;;;1999.90;999.90;;;;;;;6.03;100.00;164003.66;5039226;28;20108;-67
2021/12/15 02:39:32;;;;;;;1999.90;999.90;;;;;;;5.69;100.00;163913.03;5043697;28;20114;-67
2021/12/15 02:41:59;;;;;;;1999.90;999.90;;;;;;;5.59;100.00;163886.91;5037109;28;20413;-67
2021/12/15 02:44:26;;;;;;;1999.90;999.90;;;;;;;5.77;100.00;163936.31;5047347;28;20081;-67
2021/12/15 02:46:53;;;;;;;1999.90;999.90;;;;;;;5.92;100.00;163976.13;5078152;28;20045;-67
2021/12/15 02:49:24;;;;;;;1999.90;999.90;;;;;;;5.83;100.00;163951.44;5035812;28;20091;-67
2021/12/15 02:51:53;;;;;;;1999.90;999.90;;;;;;;5.80;100.00;163943.19;5040173;28;20081;-66
2021/12/15 02:54:21;;;;;;;1999.90;999.90;;;;;;;5.74;100.00;163926.72;5044554;28;20105;-66
2021/12/15 02:56:51;;;;;;;1999.90;999.90;;;;;;;5.93;100.00;163978.88;5035862;28;20367;-67
2021/12/15 02:59:30;;;;;;;1999.90;999.90;;;;;;;6.08;100.00;164018.75;5039765;28;20085;-67
2021/12/15 03:02:36;;;;;;;1999.90;999.90;;;;;;;5.80;100.00;163943.19;5038230;28;20048;-67
2021/12/15 03:04:54;;;;;;;1999.90;999.90;;;;;;;5.90;100.00;163970.66;5041257;28;20056;-67
2021/12/15 03:07:39;;;;;;;1999.90;999.90;;;;;;;5.82;100.00;163950.06;5037019;28;20405;-67
2021/12/15 03:15:42;;;;;;;1999.90;999.90;;;;;;;6.05;100.00;164010.53;5040521;28;20142;-67
2021/12/15 03:18:16;;;;;;;1999.90;999.90;;;;;;;6.07;100.00;164014.63;5038282;28;20045;-67
2021/12/15 03:20:49;;;;;;;1999.90;999.90;;;;;;;6.24;100.00;164061.34;5044215;28;20048;-67
2021/12/15 03:23:21;;;;;;;1999.90;999.90;;;;;;;6.24;100.00;164059.94;5033878;28;20081;-67
2021/12/15 03:25:48;;;;;;;1999.90;999.90;;;;;;;5.78;100.00;163937.72;5046674;28;20080;-67
2021/12/15 03:36:53;;;;;;;1999.90;999.90;;;;;;;6.04;100.00;164007.75;5039225;28;20084;-67
2021/12/15 03:39:20;;;;;;;1999.90;999.90;;;;;;;5.90;100.00;163969.28;5039253;28;20048;-67
2021/12/15 03:41:56;;;;;;;1999.90;999.90;;;;;;;6.27;100.00;164069.56;5037984;28;20110;-67
2021/12/15 03:44:23;;;;;;;1999.90;999.90;;;;;;;5.97;100.00;163988.59;5038729;28;20466;-67
2021/12/15 03:46:50;;;;;;;1999.90;999.90;;;;;;;6.08;100.00;164017.41;5037322;28;20492;-67
2021/12/15 03:49:17;;;;;;;1999.90;999.90;;;;;;;6.26;100.00;164066.81;5050105;28;20440;-67
2021/12/15 03:51:43;;;;;;;1999.90;999.90;;;;;;;6.23;100.00;164058.56;5045138;28;20048;-67
2021/12/15 03:54:10;;;;;;;1999.90;999.90;;;;;;;6.35;100.00;164091.53;5050582;28;20465;-67
2021/12/15 03:56:40;;;;;;;1999.90;999.90;;;;;;;6.46;100.00;164119.00;5046408;28;20154;-67
2021/12/15 03:59:08;;;;;;;1999.90;999.90;;;;;;;6.43;100.00;164112.16;5047133;28;20223;-67
2021/12/15 04:01:35;;;;;;;1999.90;999.90;;;;;;;6.38;100.00;164097.03;5043131;28;20036;-67
2021/12/15 04:04:02;;;;;;;1999.90;999.90;;;;;;;6.27;100.00;164069.56;5040550;28;20430;-67
2021/12/15 04:06:33;;;;;;;1999.90;999.90;;;;;;;6.25;100.00;164064.09;5045107;28;20091;-67
2021/12/15 04:09:00;;;;;;;;;;;;;;;6.47;100.00;164121.75;5038689;28;20496;-67
2021/12/15 04:11:33;;;;;;;1999.90;999.90;;;;;;;6.27;100.00;164069.56;5043737;28;19921;-67
2021/12/15 04:14:02;;;;;;;1999.90;999.90;;;;;;;6.21;100.00;164053.09;5041408;28;20081;-67
2021/12/15 04:19:02;;;;;;;1999.90;999.90;;;;;;;6.12;100.00;164029.75;5046673;28;20466;-67
2021/12/15 04:21:29;;;;;;;1999.90;999.90;;;;;;;6.11;100.00;164025.63;5035215;28;20064;-67
2021/12/15 04:23:57;;;;;;;1999.90;999.90;;;;;;;6.27;100.00;164069.56;5042834;28;20438;-67
2021/12/15 04:26:26;;;;;;;1999.90;999.90;;;;;;;6.23;100.00;164058.56;5041204;28;20422;-67
2021/12/15 04:28:53;;;;;;;1999.90;999.90;;;;;;;6.04;100.00;164006.41;5049215;28;20433;-67
2021/12/15 04:31:25;;;;;;;1999.90;999.90;;;;;;;5.78;100.00;163937.72;5037720;28;20085;-67
2021/12/15 04:33:56;;;;;;;1999.90;999.90;;;;;;;5.40;100.00;163836.13;5041704;28;20398;-67
2021/12/15 04:36:33;;;;;;;1999.90;999.90;;;;;;;5.79;100.00;163940.44;5074080;28;20057;-67
2021/12/15 04:39:01;;;;;;;1999.90;999.90;;;;;;;6.23;100.00;164058.56;5045574;28;20076;-67
2021/12/15 04:41:29;;;;;;;1999.90;999.90;;;;;;;6.26;100.00;164066.81;5047782;28;20102;-66
2021/12/15 04:44:09;;;;;;;1999.90;999.90;;;;;;;6.25;100.00;164062.69;5043671;28;20330;-66
2021/12/15 04:46:40;;;;;;;1999.90;999.90;;;;;;;6.42;100.00;164108.03;5040738;28;20053;-66
2021/12/15 04:49:11;;;;;;;1999.90;999.90;;;;;;;6.57;100.00;164147.88;5042966;28;20049;-66
2021/12/15 04:51:37;;;;;;;1999.90;999.90;;;;;;;6.27;100.00;164068.22;5048411;28;20418;-66
2021/12/15 04:54:05;;;;;;;1999.90;999.90;;;;;;;6.21;100.00;164051.69;5046079;28;20485;-66
2021/12/15 04:56:31;;;;;;;1999.90;999.90;;;;;;;6.16;100.00;164039.34;5047283;28;20049;-66
2021/12/15 04:58:58;;;;;;;1999.90;999.90;;;;;;;6.10;100.00;164022.88;5046757;28;20122;-66
2021/12/15 05:01:26;;;;;;;1999.90;999.90;;;;;;;6.37;100.00;164094.28;5040701;28;20076;-66
2021/12/15 05:03:52;;;;;;;1999.90;999.90;;;;;;;6.52;100.00;164135.50;5042306;28;20138;-66
2021/12/15 05:06:21;;;;;;;1999.90;999.90;;;;;;;6.48;100.00;164124.50;5050428;28;20052;-66
2021/12/15 05:08:48;;;;;;;1999.90;999.90;;;;;;;6.58;100.00;164152.00;5038905;28;20087;-66
2021/12/15 05:11:15;;;;;;;1999.90;999.90;;;;;;;6.47;100.00;164121.75;5046033;28;20434;-66
2021/12/15 05:13:42;;;;;;;1999.90;999.90;;;;;;;6.62;100.00;164161.59;5044833;28;20442;-66
2021/12/15 05:16:09;;;;;;;1999.90;999.90;;;;;;;6.60;100.00;164157.47;5043988;28;20055;-66
2021/12/15 05:18:35;;;;;;;1999.90;999.90;;;;;;;6.61;100.00;164158.81;5036491;28;20131;-66
2021/12/15 05:21:05;;;;;;;1999.90;999.90;;;;;;;6.46;100.00;164119.00;5044405;28;20111;-66
2021/12/15 05:23:37;;;;;;;1999.90;999.90;;;;;;;6.47;100.00;164121.75;5041479;28;20078;-66
2021/12/15 05:26:04;;;;;;;1999.90;999.90;;;;;;;6.57;100.00;164147.88;5046743;28;20102;-66
2021/12/15 05:28:31;;;;;;;1999.90;999.90;;;;;;;6.58;100.00;164150.59;5044574;28;20280;-66
2021/12/15 05:30:58;;;;;;;1999.90;999.90;;;;;;;6.62;99.98;164162.94;5044685;28;20403;-66
2021/12/15 05:33:25;;;;;;;1999.90;999.90;;;;;;;6.50;100.00;164130.00;5044412;28;20087;-66
2021/12/15 05:35:53;;;;;;;1999.90;999.90;;;;;;;6.65;100.00;164171.19;5044291;28;20111;-65
2021/12/15 05:38:21;;;;;;;1999.90;999.90;;;;;;;6.76;99.99;164198.66;5047459;28;20041;-66
2021/12/15 05:40:48;;;;;;;1999.90;999.90;;;;;;;6.75;99.77;164195.94;5043635;28;20498;-66
2021/12/15 05:43:15;;;;;;;1999.90;999.90;;;;;;;6.74;99.85;164194.53;5042979;28;20080;-66
2021/12/15 05:45:43;;;;;;;1999.90;999.90;;;;;;;6.77;99.80;164202.78;5044097;28;20048;-66
2021/12/15 05:48:13;;;;;;;1999.90;999.90;;;;;;;6.79;100.00;164208.31;5043541;28;20098;-66
2021/12/15 05:50:41;;;;;;;1999.90;999.90;;;;;;;6.72;99.70;164189.06;5040019;28;20042;-66
2021/12/15 05:53:08;;;;;;;1999.90;999.90;;;;;;;6.78;99.96;164205.53;5036289;28;20418;-66
2021/12/15 05:55:36;;;;;;;1999.90;999.90;;;;;;;6.85;99.42;164223.44;5036677;28;20081;-66
2021/12/15 05:58:04;;;;;;;1999.90;999.90;;;;;;;6.41;100.00;164105.28;5044460;28;20087;-66
2021/12/15 06:00:34;;;;;;;1999.90;999.90;;;;;;;6.07;100.00;164014.63;5045570;28;20190;-66
2021/12/15 06:03:03;;;;;;;1999.90;999.90;;;;;;;6.20;100.00;164050.34;5041690;28;20522;-66
2021/12/15 06:05:29;;;;;;;1999.90;999.90;;;;;;;6.21;100.00;164053.09;5038040;28;20127;-66
2021/12/15 06:07:56;;;;;;;1999.90;999.90;;;;;;;6.39;100.00;164101.16;5038013;28;20095;-66
2021/12/15 06:10:26;;;;;;;1999.90;999.90;;;;;;;6.63;100.00;164165.72;5043695;28;20126;-66
2021/12/15 06:12:55;;;;;;;1999.90;999.90;;;;;;;6.73;100.00;164190.41;5043561;28;20076;-66
2021/12/15 06:15:24;;;;;;;1999.90;999.90;;;;;;;6.68;100.00;164178.06;5038885;28;20084;-66
2021/12/15 06:17:56;;;;;;;1999.90;999.90;;;;;;;6.77;99.82;164201.41;5037209;28;20091;-66
2021/12/15 06:20:23;;;;;;;1999.90;999.90;;;;;;;6.72;99.93;164189.06;5068633;28;20527;-66
2021/12/15 06:22:52;;;;;;;1999.90;999.90;;;;;;;6.87;99.47;164228.91;5037998;28;20091;-66
2021/12/15 06:25:20;;;;;;;1999.90;999.90;;;;;;;6.87;99.55;164230.25;5042102;28;20050;-66
2021/12/15 06:27:46;;;;;;;1999.90;999.90;;;;;;;6.90;99.27;164237.16;5034807;28;20492;-66
2021/12/15 06:30:13;;;;;;;1999.90;999.90;;;;;;;6.90;99.36;164237.16;5036283;28;20126;-67
2021/12/15 06:32:41;;;;;;;1999.90;999.90;;;;;;;6.90;99.40;164235.78;5044813;28;20097;-67
2021/12/15 06:35:09;;;;;;;1999.90;999.90;;;;;;;6.80;99.53;164211.06;5046925;28;20061;-67
2021/12/15 06:37:35;;;;;;;1999.90;999.90;;;;;;;6.95;99.59;164250.91;5038199;28;20072;-67
2021/12/15 06:40:07;;;;;;;1999.90;999.90;;;;;;;6.92;99.31;164241.25;5036054;28;20541;-67
2021/12/15 06:42:36;;;;;;;1999.90;999.90;;;;;;;6.85;99.26;164223.44;5041343;28;20073;-67
2021/12/15 06:45:08;;;;;;;1999.90;999.90;;;;;;;6.84;99.59;164220.66;5038993;28;20045;-67
2021/12/15 06:58:45;;;;;;;1999.90;999.90;;;;;;;6.68;100.00;164179.47;5043562;28;20052;-67
2021/12/15 07:01:13;;;;;;;1999.90;999.90;;;;;;;6.80;100.00;164209.66;5050951;28;20053;-67
2021/12/15 07:03:41;;;;;;;1999.90;999.90;;;;;;;6.84;100.00;164220.66;5041692;28;20119;-67
2021/12/15 07:06:07;;;;;;;1999.90;999.90;;;;;;;6.81;100.00;164213.78;5048651;28;20122;-67
2021/12/15 07:08:36;;;;;;;1999.90;999.90;;;;;;;6.58;100.00;164152.00;5047541;28;20053;-67
2021/12/15 07:11:04;;;;;;;1999.90;999.90;;;;;;;6.74;100.00;164193.19;5040904;28;20061;-67
2021/12/15 07:13:31;;;;;;;1999.90;999.90;;;;;;;6.70;100.00;164184.94;5037553;28;20091;-67
2021/12/15 07:16:00;;;;;;;1999.90;999.90;;;;;;;6.56;100.00;164146.47;5039267;28;20080;-67
2021/12/15 07:18:38;;;;;;;1999.90;999.90;;;;;;;6.31;100.00;164079.16;5046920;28;20051;-67
2021/12/15 07:21:11;;;;;;;1999.90;999.90;;;;;;;5.94;100.00;163980.25;5047836;28;20080;-67
2021/12/15 07:23:38;;;;;;;1999.90;999.90;;;;;;;6.14;100.00;164035.22;5041988;28;20049;-67
2021/12/15 07:26:05;;;;;;;1999.90;999.90;;;;;;;5.96;100.00;163987.13;5038796;28;20143;-67
2021/12/15 07:28:32;;;;;;;1999.90;999.90;;;;;;;5.91;100.00;163972.00;5042471;28;20053;-67
2021/12/15 07:30:59;;;;;;;1999.90;999.90;;;;;;;5.81;100.00;163947.31;5044612;28;20549;-67
2021/12/15 07:33:26;;;;;;;1999.90;999.90;;;;;;;5.66;100.00;163906.16;5046525;28;20110;-67
2021/12/15 07:35:53;;;;;;;1999.90;999.90;;;;;;;5.55;100.00;163877.34;5041596;28;20128;-67
2021/12/15 07:38:21;;;;;;;1999.90;999.90;;;;;;;5.89;100.00;163967.88;5039076;28;20049;-67
2021/12/15 07:40:48;;;;;;;1999.90;999.90;;;;;;;5.87;100.00;163962.41;5044582;28;20076;-67
2021/12/15 07:43:23;;;;;;;1999.90;999.90;;;;;;;5.69;100.00;163913.03;5046224;28;20457;-67
2021/12/15 07:46:08;;;;;;;1999.90;999.90;;;;;;;5.69;100.00;163913.03;5043578;28;20048;-67
2021/12/15 07:48:35;;;;;;;1999.90;999.90;;;;;;;5.77;100.00;163934.97;5042672;28;20132;-67
2021/12/15 07:51:05;;;;;;;1999.90;999.90;;;;;;;5.55;100.00;163877.34;5037805;28;20045;-67
2021/12/15 07:53:32;;;;;;;1999.90;999.90;;;;;;;5.74;100.00;163926.72;5046940;28;20454;-67
2021/12/15 07:55:59;;;;;;;1999.90;999.90;;;;;;;5.69;100.00;163914.38;5046022;28;20122;-67
2021/12/15 07:58:26;;;;;;;1999.90;999.90;;;;;;;5.50;100.00;163863.56;5034866;28;20488;-67
2021/12/15 08:00:53;;;;;;;1999.90;999.90;;;;;;;5.53;100.00;163871.81;5041908;28;20081;-66
2021/12/15 08:03:21;;;;;;;1999.90;999.90;;;;;;;5.75;100.00;163930.84;5045987;28;20374;-66
2021/12/15 08:05:50;;;;;;;1999.90;999.90;;;;;;;5.82;100.00;163950.06;5037134;28;20123;-66
2021/12/15 08:08:17;;;;;;;1999.90;999.90;;;;;;;5.78;100.00;163937.72;5041902;28;20077;-67
2021/12/15 08:10:45;;;;;;;1999.90;999.90;;;;;;;6.20;100.00;164050.34;5040222;28;20084;-67
2021/12/15 08:13:15;;;;;;;1999.90;999.90;;;;;;;5.96;100.00;163987.13;5037205;28;20106;-66
2021/12/15 08:15:43;;;;;;;1999.90;999.90;;;;;;;6.17;100.00;164042.09;5047297;28;20396;-67
2021/12/15 08:18:10;;;;;;;1999.90;999.90;;;;;;;6.05;100.00;164009.16;5041685;28;20437;-66
2021/12/15 08:20:37;;;;;;;1999.90;999.90;;;;;;;6.05;100.00;164009.16;5037674;28;20077;-66
2021/12/15 08:23:04;;;;;;;1999.90;999.90;;;;;;;6.40;100.00;164103.94;5038828;28;20089;-67
2021/12/15 08:25:32;;;;;;;1999.90;999.90;;;;;;;6.69;100.00;164180.81;5043875;28;20698;-66
2021/12/15 08:27:59;;;;;;;1999.90;999.90;;;;;;;6.64;100.00;164168.47;5043226;28;20057;-66
2021/12/15 08:30:28;;;;;;;1999.90;999.90;;;;;;;6.61;100.00;164160.22;5039355;28;20577;-67
2021/12/15 08:33:01;;;;;;;1999.90;999.90;;;;;;;6.59;100.00;164154.69;5042570;28;20049;-67
2021/12/15 08:35:32;;;;;;;1999.90;999.90;;;;;;;6.64;100.00;164167.06;5036058;28;20045;-67
2021/12/15 08:37:59;;;;;;;1999.90;999.90;;;;;;;6.61;100.00;164158.81;5045876;28;20139;-67
2021/12/15 08:40:27;;;;;;;1999.90;999.90;;;;;;;6.48;100.00;164124.50;5042103;28;20068;-67
2021/12/15 08:42:55;;;;;;;1999.90;999.90;;;;;;;6.57;100.00;164149.22;5049390;28;20150;-66
2021/12/15 08:45:23;;;;;;;1999.90;999.90;;;;;;;6.61;100.00;164158.81;5044954;28;20491;-67
2021/12/15 08:47:51;;;;;;;1999.90;999.90;;;;;;;7.02;100.00;164270.09;5039033;28;20080;-67
2021/12/15 08:50:21;;;;;;;1999.90;999.90;;;;;;;7.12;100.00;164296.22;5040045;28;20123;-67
2021/12/15 08:52:48;;;;;;;1999.90;999.90;;;;;;;7.19;100.00;164315.47;5042273;28;20071;-67
2021/12/15 08:55:15;;;;;;;1999.90;999.90;;;;;;;7.19;100.00;164314.06;5035791;28;20400;-67
2021/12/15 08:57:47;;;;;;;1999.90;999.90;;;;;;;7.26;100.00;164331.97;5036068;28;20045;-67
2021/12/15 09:00:17;;;;;;;1999.90;999.90;;;;;;;7.29;100.00;164340.19;5039948;28;20084;-67
2021/12/15 09:02:44;;;;;;;1999.90;999.90;;;;;;;7.18;100.00;164312.72;5037249;28;20411;-67
2021/12/15 09:05:11;;;;;;;1999.90;999.90;;;;;;;7.07;100.00;164282.47;5046180;28;20103;-67
2021/12/15 09:07:38;;;;;;;1999.90;999.90;;;;;;;6.93;100.00;164245.38;5033019;28;20057;-66
2021/12/15 09:10:08;;;;;;;1999.90;999.90;;;;;;;6.27;100.00;164069.56;5046125;28;20041;-66
2021/12/15 09:12:36;;;;;;;1999.90;999.90;;;;;;;6.39;100.00;164099.81;5039894;28;20488;-67
2021/12/15 09:15:06;;;;;;;1999.90;999.90;;;;;;;6.70;100.00;164184.94;5040732;28;20088;-67
2021/12/15 09:17:33;;;;;;;1999.90;999.90;;;;;;;6.78;100.00;164204.19;5045759;28;20080;-67
2021/12/15 09:20:00;;;;;;;1999.90;999.90;;;;;;;6.62;100.00;164162.94;5042694;28;20497;-67
2021/12/15 09:22:27;;;;;;;1999.90;999.90;;;;;;;6.74;100.00;164193.19;5034998;28;20111;-67
2021/12/15 09:24:53;;;;;;;1999.90;999.90;;;;;;;6.94;100.00;164248.16;5041140;28;20406;-67
2021/12/15 09:27:20;;;;;;;1999.90;999.90;;;;;;;7.07;100.00;164282.47;5041313;28;20081;-67
2021/12/15 09:29:46;;;;;;;1999.90;999.90;;;;;;;6.95;100.00;164250.91;5036057;28;20110;-67
2021/12/15 09:32:14;;;;;;;1999.90;999.90;;;;;;;7.15;100.00;164303.13;5037910;28;20114;-67
2021/12/15 09:34:40;;;;;;;1999.90;999.90;;;;;;;7.38;100.00;164366.31;5038669;28;20099;-67
2021/12/15 09:37:07;;;;;;;1999.90;999.90;;;;;;;7.26;100.00;164333.31;5044602;28;20184;-67
2021/12/15 09:39:35;;;;;;;1999.90;999.90;;;;;;;7.38;100.00;164364.91;5041558;28;20084;-68
2021/12/15 09:42:23;;;;;;;1999.90;999.90;;;;;;;7.15;100.00;164304.47;5036274;28;20434;-65
2021/12/15 09:44:53;;;;;;;1999.90;999.90;;;;;;;7.30;100.00;164342.97;5036056;28;20077;-66
2021/12/15 09:47:43;;;;;;;1999.90;999.90;;;;;;;7.32;100.00;164348.44;5038553;28;20088;-66
2021/12/15 10:04:30;;;;;;;1999.90;999.90;;;;;;;7.42;100.00;164375.94;5027971;28;20045;-66
2021/12/15 10:18:24;;;;;;;1999.90;999.90;;;;;;;6.98;100.00;164259.16;5042601;28;21380;-65
2021/12/15 10:20:51;;;;;;;1999.90;999.90;;;;;;;7.12;100.00;164294.88;5036093;28;20080;-66
2021/12/15 10:23:24;;;;;;;1999.90;999.90;;;;;;;7.32;100.00;164349.78;5041914;28;20045;-65
2021/12/15 10:25:54;;;;;;;1999.90;999.90;;;;;;;7.07;100.00;164281.09;5035533;28;20050;-66
2021/12/15 10:28:27;;;;;;;1999.90;999.90;;;;;;;7.35;100.00;164358.09;5041947;28;20052;-66
2021/12/15 10:30:56;;;;;;;1999.90;999.90;;;;;;;7.17;100.00;164308.59;5035357;28;20498;-66
2021/12/15 10:33:28;;;;;;;1999.90;999.90;;;;;;;7.03;100.00;164272.88;5037689;28;20136;-66
2021/12/15 10:36:01;;;;;;;1999.90;999.90;;;;;;;6.78;100.00;164205.53;5045541;28;20385;-66
2021/12/15 10:38:42;;;;;;;1999.90;999.90;;;;;;;7.35;100.00;164358.09;5041500;28;20449;-66
2021/12/15 10:41:14;;;;;;;1999.90;999.90;;;;;;;7.41;100.00;164373.16;5043746;28;20172;-66
2021/12/15 10:43:54;;;;;;;1999.90;999.90;;;;;;;7.19;100.00;164314.06;5035503;28;20045;-66
2021/12/15 10:46:37;;;;;;;1999.90;999.90;;;;;;;7.11;100.00;164292.09;5039955;28;20048;-66
2021/12/15 10:49:15;;;;;;;1999.90;999.90;;;;;;;6.52;100.00;164135.50;5049415;28;20045;-66
2021/12/15 10:51:47;;;;;;;1999.90;999.90;;;;;;;6.26;100.00;164066.81;5035502;28;20049;-66
2021/12/15 10:54:20;;;;;;;1999.90;999.90;;;;;;;6.41;100.00;164105.28;5039796;28;20052;-66
2021/12/15 10:57:12;;;;;;;1999.90;999.90;;;;;;;6.59;100.00;164154.69;5035385;28;20450;-66
2021/12/15 10:59:45;;;;;;;1999.90;999.90;;;;;;;6.10;100.00;164022.88;5041202;28;20049;-66
2021/12/15 11:02:32;;;;;;;1999.90;999.90;;;;;;;6.29;100.00;164075.03;5035224;28;20045;-67
2021/12/15 11:05:10;;;;;;;1999.90;999.90;;;;;;;6.50;100.00;164130.00;5039754;28;20049;-67
2021/12/15 11:07:40;;;;;;;1999.90;999.90;;;;;;;6.75;100.00;164195.94;5039652;28;20040;-67
2021/12/15 11:10:22;;;;;;;1999.90;999.90;;;;;;;6.95;100.00;164250.91;5041275;28;20350;-67
2021/12/15 11:12:58;;;;;;;1999.90;999.90;;;;;;;6.81;100.00;164212.44;5042215;28;20037;-67
2021/12/15 11:15:27;;;;;;;1999.90;999.90;;;;;;;6.92;100.00;164242.63;5034639;28;20045;-67
2021/12/15 11:18:01;;;;;;;1999.90;999.90;;;;;;;6.90;100.00;164237.16;5031764;28;20076;-67
2021/12/15 11:20:29;;;;;;;1999.90;999.90;;;;;;;6.78;100.00;164204.19;5072839;28;20130;-67
2021/12/15 11:22:57;;;;;;;1999.90;999.90;;;;;;;6.93;100.00;164244.03;5038701;28;20150;-67
2021/12/15 11:25:56;;;;;;;1999.90;999.90;;;;;;;6.35;100.00;164091.53;5045452;28;20052;-67
2021/12/15 11:28:24;;;;;;;1999.90;999.90;;;;;;;6.30;100.00;164077.81;5034380;28;20053;-67
2021/12/15 11:31:11;;;;;;;1999.90;999.90;;;;;;;6.33;100.00;164084.69;5040750;28;20438;-67
2021/12/15 11:33:47;;;;;;;1999.90;999.90;;;;;;;6.27;100.00;164069.56;5039404;28;20045;-67
2021/12/15 11:36:27;;;;;;;1999.90;999.90;;;;;;;6.86;100.00;164226.13;5037853;28;20123;-67
2021/12/15 11:39:24;;;;;;;1999.90;999.90;;;;;;;7.10;100.00;164289.34;5037448;28;20162;-67
2021/12/15 11:41:53;;;;;;;1999.90;999.90;;;;;;;6.96;100.00;164253.63;5041473;28;20060;-67
2021/12/15 11:44:25;;;;;;;1999.90;999.90;;;;;;;6.70;100.00;164183.59;5042193;28;20053;-67
2021/12/15 11:47:01;;;;;;;1999.90;999.90;;;;;;;6.90;100.00;164237.16;5047638;28;20044;-67
2021/12/15 11:49:31;;;;;;;1999.90;999.90;;;;;;;7.15;100.00;164303.13;5039707;28;20049;-67
2021/12/15 11:52:06;;;;;;;1999.90;999.90;;;;;;;7.16;100.00;164305.81;5040444;28;20115;-67
2021/12/15 11:54:47;;;;;;;1999.90;999.90;;;;;;;6.95;100.00;164250.91;5043393;28;20331;-67
2021/12/15 11:57:18;;;;;;;1999.90;999.90;;;;;;;7.38;100.00;164366.31;5038222;28;20084;-67
2021/12/15 11:59:49;;;;;;;1999.90;999.90;;;;;;;7.63;100.00;164430.91;5044547;28;20442;-67
2021/12/15 12:02:37;;;;;;;1999.90;999.90;;;;;;;7.59;100.00;164421.25;5040132;28;20041;-67
2021/12/15 12:05:18;;;;;;;1999.90;999.90;;;;;;;7.66;100.00;164439.16;5040284;28;20458;-67
2021/12/15 12:07:47;;;;;;;1999.90;999.90;;;;;;;7.60;100.00;164422.66;5038166;28;20434;-67
2021/12/15 12:10:21;;;;;;;1999.90;999.90;;;;;;;7.73;100.00;164459.78;5045207;28;20545;-67
2021/12/15 12:12:53;;;;;;;1999.90;999.90;;;;;;;7.87;100.00;164495.50;5045181;28;20041;-66